Time;durP1;ratioP1;P1;durP2;ratioP2;P2;SDS_P1;SDS_P2;PMS_P1;PMS_P2;Temp;Humidity;BMP_temperature;BMP_pressure;BME280_temperature;BME280_humidity;BME280_pressure;Samples;Min_cycle;Max_cycle;Signal;HPM_P1;HPM_P2
2023/08/02 00:02:27;;;;;;;0.00;0.00;;;;;;;;;;7374831;19;20216;-68
2023/08/02 00:04:56;;;;;;;0.00;0.00;;;;;;;;;;7380720;19;20160;-71
2023/08/02 00:07:27;;;;;;;0.00;0.00;;;;;;;;;;7381825;19;20133;-72
2023/08/02 00:09:56;;;;;;;0.00;0.00;;;;;;;;;;7379881;19;20153;-72
2023/08/02 00:12:25;;;;;;;0.00;0.00;;;;;;;;;;7380536;19;20157;-71
2023/08/02 00:14:54;;;;;;;0.00;0.00;;;;;;;;;;7381877;19;20133;-70
2023/08/02 00:17:23;;;;;;;0.00;0.00;;;;;;;;;;7381089;19;20136;-71
2023/08/02 00:19:52;;;;;;;0.00;0.00;;;;;;;;;;7381749;19;20124;-70
2023/08/02 00:22:21;;;;;;;0.00;0.00;;;;;;;;;;7378669;19;20200;-70
2023/08/02 00:24:52;;;;;;;0.00;0.00;;;;;;;;;;7381466;19;20188;-72
2023/08/02 00:27:21;;;;;;;0.00;0.00;;;;;;;;;;7380793;19;20152;-70
2023/08/02 00:29:50;;;;;;;0.00;0.00;;;;;;;;;;7381209;19;20157;-73
2023/08/02 00:32:19;;;;;;;0.00;0.00;;;;;;;;;;7378493;19;20180;-70
2023/08/02 00:34:54;;;;;;;0.00;0.00;;;;;;;;;;7379804;19;20156;-71
2023/08/02 00:40:07;;;;;;;0.00;0.00;;;;;;;;;;7376091;19;20219;-70
2023/08/02 00:42:37;;;;;;;0.00;0.00;;;;;;;;;;7378539;19;20153;-72
2023/08/02 00:45:06;;;;;;;0.00;0.00;;;;;;;;;;7379416;19;20173;-70
2023/08/02 00:47:35;;;;;;;0.00;0.00;;;;;;;;;;7379263;19;20148;-68
2023/08/02 00:50:05;;;;;;;0.00;0.00;;;;;;;;;;7380571;19;20137;-72
2023/08/02 00:52:34;;;;;;;0.00;0.00;;;;;;;;;;7379180;19;20177;-71
2023/08/02 00:55:03;;;;;;;0.00;0.00;;;;;;;;;;7378910;19;20168;-68
2023/08/02 00:57:35;;;;;;;0.00;0.00;;;;;;;;;;7378325;19;20148;-71
2023/08/02 01:00:05;;;;;;;0.00;0.00;;;;;;;;;;7377776;19;20152;-71
2023/08/02 01:02:34;;;;;;;0.00;0.00;;;;;;;;;;7376571;19;20180;-69
2023/08/02 01:05:03;;;;;;;0.00;0.00;;;;;;;;;;7378391;19;20658;-71
2023/08/02 01:07:36;;;;;;;0.00;0.00;;;;;;;;;;7377607;19;20220;-71
2023/08/02 01:10:09;;;;;;;0.00;0.00;;;;;;;;;;7377969;19;20156;-73
2023/08/02 01:12:42;;;;;;;0.00;0.00;;;;;;;;;;7375460;19;20181;-70
2023/08/02 01:15:12;;;;;;;0.00;0.00;;;;;;;;;;7386036;19;20155;-71
2023/08/02 01:17:41;;;;;;;0.00;0.00;;;;;;;;;;7382871;19;20149;-71
2023/08/02 01:20:13;;;;;;;0.00;0.00;;;;;;;;;;7386692;19;20141;-70
2023/08/02 01:22:42;;;;;;;0.00;0.00;;;;;;;;;;7382851;19;20180;-69
2023/08/02 01:25:11;;;;;;;0.00;0.00;;;;;;;;;;7386441;19;20177;-71
2023/08/02 01:27:43;;;;;;;0.00;0.00;;;;;;;;;;7388128;19;20133;-71
2023/08/02 01:30:14;;;;;;;0.00;0.00;;;;;;;;;;7384679;19;20653;-71
2023/08/02 01:32:43;;;;;;;0.00;0.00;;;;;;;;;;7382463;19;20243;-70
2023/08/02 01:35:16;;;;;;;0.00;0.00;;;;;;;;;;7385815;19;20148;-71
2023/08/02 01:37:45;;;;;;;0.00;0.00;;;;;;;;;;7383673;19;20156;-70
2023/08/02 01:40:16;;;;;;;0.00;0.00;;;;;;;;;;7385933;19;20137;-68
2023/08/02 01:42:45;;;;;;;0.00;0.00;;;;;;;;;;7382873;19;20187;-71
2023/08/02 01:45:14;;;;;;;0.00;0.00;;;;;;;;;;7384617;19;20179;-69
2023/08/02 01:47:43;;;;;;;0.00;0.00;;;;;;;;;;7387478;19;20137;-70
2023/08/02 01:50:15;;;;;;;0.00;0.00;;;;;;;;;;7385672;19;20141;-71
2023/08/02 01:52:48;;;;;;;0.00;0.00;;;;;;;;;;7382337;19;20184;-70
2023/08/02 01:55:18;;;;;;;0.00;0.00;;;;;;;;;;7387349;19;20137;-71
2023/08/02 01:57:47;;;;;;;0.00;0.00;;;;;;;;;;7383006;19;20161;-73
2023/08/02 02:00:16;;;;;;;0.00;0.00;;;;;;;;;;7384512;19;20156;-69
2023/08/02 02:02:46;;;;;;;0.00;0.00;;;;;;;;;;7382308;19;20184;-70
2023/08/02 02:05:18;;;;;;;0.00;0.00;;;;;;;;;;7385344;19;20262;-73
2023/08/02 02:07:48;;;;;;;0.00;0.00;;;;;;;;;;7383538;19;20163;-69
2023/08/02 02:10:18;;;;;;;0.00;0.00;;;;;;;;;;7384508;19;20152;-70
2023/08/02 02:12:47;;;;;;;0.00;0.00;;;;;;;;;;7381195;19;20184;-70
2023/08/02 02:15:16;;;;;;;0.00;0.00;;;;;;;;;;7384964;19;20148;-69
2023/08/02 02:17:46;;;;;;;0.00;0.00;;;;;;;;;;7382237;19;20145;-70
2023/08/02 02:20:15;;;;;;;0.00;0.00;;;;;;;;;;7383161;19;20145;-69
2023/08/02 02:22:47;;;;;;;0.00;0.00;;;;;;;;;;7380523;19;20243;-70
2023/08/02 02:25:16;;;;;;;0.00;0.00;;;;;;;;;;7382146;19;20363;-69
2023/08/02 02:27:45;;;;;;;0.00;0.00;;;;;;;;;;7384024;19;20196;-70
2023/08/02 02:30:14;;;;;;;0.00;0.00;;;;;;;;;;7381650;19;20164;-70
2023/08/02 02:32:43;;;;;;;0.00;0.00;;;;;;;;;;7380970;19;20187;-71
2023/08/02 02:35:13;;;;;;;0.00;0.00;;;;;;;;;;7381916;19;20149;-70
2023/08/02 02:37:43;;;;;;;0.00;0.00;;;;;;;;;;7382080;19;20181;-70
2023/08/02 02:40:15;;;;;;;0.00;0.00;;;;;;;;;;7380078;19;20145;-70
2023/08/02 02:42:44;;;;;;;0.00;0.00;;;;;;;;;;7379523;19;20187;-71
2023/08/02 02:45:13;;;;;;;0.00;0.00;;;;;;;;;;7380636;19;20149;-71
2023/08/02 02:47:43;;;;;;;0.00;0.00;;;;;;;;;;7380550;19;20157;-69
2023/08/02 02:50:12;;;;;;;0.00;0.00;;;;;;;;;;7381999;19;20156;-69
2023/08/02 02:52:42;;;;;;;0.00;0.00;;;;;;;;;;7378605;19;20181;-73
2023/08/02 02:55:11;;;;;;;0.00;0.00;;;;;;;;;;7382706;19;20183;-73
2023/08/02 02:57:43;;;;;;;0.00;0.00;;;;;;;;;;7379752;19;20156;-71
2023/08/02 03:00:12;;;;;;;0.00;0.00;;;;;;;;;;7381111;19;20157;-69
2023/08/02 03:02:41;;;;;;;0.00;0.00;;;;;;;;;;7381284;19;20153;-73
2023/08/02 03:05:10;;;;;;;0.00;0.00;;;;;;;;;;7383260;19;20157;-72
2023/08/02 03:07:39;;;;;;;0.00;0.00;;;;;;;;;;7383588;19;20179;-70
2023/08/02 03:10:09;;;;;;;0.00;0.00;;;;;;;;;;7382557;19;20181;-72
2023/08/02 03:12:38;;;;;;;0.00;0.00;;;;;;;;;;7381382;19;20208;-71
2023/08/02 03:15:10;;;;;;;0.00;0.00;;;;;;;;;;7384117;19;20165;-71
2023/08/02 03:17:39;;;;;;;0.00;0.00;;;;;;;;;;7382793;19;20137;-71
2023/08/02 03:20:09;;;;;;;0.00;0.00;;;;;;;;;;7381281;19;20152;-73
2023/08/02 03:22:38;;;;;;;0.00;0.00;;;;;;;;;;7381434;19;20149;-70
2023/08/02 03:25:07;;;;;;;0.00;0.00;;;;;;;;;;7382865;19;20144;-72
2023/08/02 03:27:36;;;;;;;0.00;0.00;;;;;;;;;;7383872;19;20144;-70
2023/08/02 03:30:05;;;;;;;0.00;0.00;;;;;;;;;;7382369;19;20141;-72
2023/08/02 03:32:37;;;;;;;0.00;0.00;;;;;;;;;;7381997;19;20196;-71
2023/08/02 03:35:06;;;;;;;0.00;0.00;;;;;;;;;;7382386;19;20192;-72
2023/08/02 03:37:35;;;;;;;0.00;0.00;;;;;;;;;;7381288;19;20157;-71
2023/08/02 03:40:03;;;;;;;0.00;0.00;;;;;;;;;;7382845;19;20132;-70
2023/08/02 03:42:32;;;;;;;0.00;0.00;;;;;;;;;;7379891;19;20191;-69
2023/08/02 03:45:01;;;;;;;0.00;0.00;;;;;;;;;;7382451;19;20136;-71
2023/08/02 03:47:30;;;;;;;0.00;0.00;;;;;;;;;;7382240;19;20157;-71
2023/08/02 03:50:02;;;;;;;0.00;0.00;;;;;;;;;;7380763;19;20152;-70
2023/08/02 03:52:31;;;;;;;0.00;0.00;;;;;;;;;;7381352;19;20164;-71
2023/08/02 03:55:00;;;;;;;0.00;0.00;;;;;;;;;;7382191;19;20142;-71
2023/08/02 03:57:28;;;;;;;0.00;0.00;;;;;;;;;;7383312;19;20129;-71
2023/08/02 03:59:57;;;;;;;0.00;0.00;;;;;;;;;;7380359;19;20164;-71
2023/08/02 04:02:26;;;;;;;0.00;0.00;;;;;;;;;;7380432;19;20153;-71
2023/08/02 04:04:55;;;;;;;0.00;0.00;;;;;;;;;;7378559;19;20156;-70
2023/08/02 04:07:27;;;;;;;0.00;0.00;;;;;;;;;;7381095;19;20133;-70
2023/08/02 04:09:56;;;;;;;0.00;0.00;;;;;;;;;;7379315;19;20259;-72
2023/08/02 04:12:25;;;;;;;0.00;0.00;;;;;;;;;;7379147;19;20141;-70
2023/08/02 04:14:54;;;;;;;0.00;0.00;;;;;;;;;;7382256;19;20616;-70
2023/08/02 04:17:25;;;;;;;0.00;0.00;;;;;;;;;;7381541;19;20141;-71
2023/08/02 04:19:54;;;;;;;0.00;0.00;;;;;;;;;;7380388;19;20166;-72
2023/08/02 04:22:23;;;;;;;0.00;0.00;;;;;;;;;;7378008;19;20665;-74
2023/08/02 04:24:55;;;;;;;0.00;0.00;;;;;;;;;;7380430;19;20153;-72
2023/08/02 04:27:26;;;;;;;0.00;0.00;;;;;;;;;;7380802;19;20143;-75
2023/08/02 04:29:55;;;;;;;0.00;0.00;;;;;;;;;;7380504;19;20156;-74
2023/08/02 04:32:24;;;;;;;0.00;0.00;;;;;;;;;;7378664;19;20174;-74
2023/08/02 04:34:53;;;;;;;0.00;0.00;;;;;;;;;;7381884;19;20145;-73
2023/08/02 04:37:22;;;;;;;0.00;0.00;;;;;;;;;;7379015;19;20648;-73
2023/08/02 04:39:51;;;;;;;0.00;0.00;;;;;;;;;;7379859;19;20157;-74
2023/08/02 04:42:23;;;;;;;0.00;0.00;;;;;;;;;;7378415;19;20177;-74
2023/08/02 04:44:52;;;;;;;0.00;0.00;;;;;;;;;;7380623;19;20163;-74
2023/08/02 04:47:21;;;;;;;0.00;0.00;;;;;;;;;;7379221;19;20148;-73
2023/08/02 04:49:50;;;;;;;0.00;0.00;;;;;;;;;;7391593;19;20160;-71
2023/08/02 04:52:19;;;;;;;0.00;0.00;;;;;;;;;;7389865;19;20524;-69
2023/08/02 04:54:48;;;;;;;0.00;0.00;;;;;;;;;;7394124;19;20156;-70
2023/08/02 04:57:17;;;;;;;0.00;0.00;;;;;;;;;;7392004;19;20148;-71
2023/08/02 04:59:49;;;;;;;0.00;0.00;;;;;;;;;;7393050;19;20160;-70
2023/08/02 05:02:18;;;;;;;0.00;0.00;;;;;;;;;;7392567;19;20160;-70
2023/08/02 05:04:47;;;;;;;0.00;0.00;;;;;;;;;;7395248;19;20200;-73
2023/08/02 05:07:16;;;;;;;0.00;0.00;;;;;;;;;;7392060;19;20156;-71
2023/08/02 05:09:45;;;;;;;0.00;0.00;;;;;;;;;;7393971;19;20183;-70
2023/08/02 05:12:14;;;;;;;0.00;0.00;;;;;;;;;;7390223;19;20188;-73
2023/08/02 05:14:43;;;;;;;0.00;0.00;;;;;;;;;;7396321;19;20136;-71
2023/08/02 05:17:15;;;;;;;0.00;0.00;;;;;;;;;;7392945;19;20177;-71
2023/08/02 05:19:44;;;;;;;0.00;0.00;;;;;;;;;;7393198;19;20151;-74
2023/08/02 05:22:13;;;;;;;0.00;0.00;;;;;;;;;;7390204;19;20190;-71
2023/08/02 05:24:42;;;;;;;0.00;0.00;;;;;;;;;;7394429;19;20156;-73
2023/08/02 05:27:11;;;;;;;0.00;0.00;;;;;;;;;;7392133;19;20156;-74
2023/08/02 05:29:40;;;;;;;0.00;0.00;;;;;;;;;;7394054;19;20173;-75
2023/08/02 05:32:09;;;;;;;0.00;0.00;;;;;;;;;;7389744;19;20184;-76
2023/08/02 05:34:41;;;;;;;0.00;0.00;;;;;;;;;;7394082;19;20149;-71
2023/08/02 05:37:10;;;;;;;0.00;0.00;;;;;;;;;;7392844;19;20208;-70
2023/08/02 05:39:39;;;;;;;0.00;0.00;;;;;;;;;;7391882;19;20178;-71
2023/08/02 05:42:08;;;;;;;0.00;0.00;;;;;;;;;;7388785;19;20181;-72
2023/08/02 05:44:39;;;;;;;0.00;0.00;;;;;;;;;;7392745;19;20160;-72
2023/08/02 05:47:08;;;;;;;0.00;0.00;;;;;;;;;;7392739;19;20161;-70
2023/08/02 05:49:37;;;;;;;0.00;0.00;;;;;;;;;;7393182;19;20148;-71
2023/08/02 05:52:09;;;;;;;0.00;0.00;;;;;;;;;;7389786;19;20177;-72
2023/08/02 05:54:38;;;;;;;0.00;0.00;;;;;;;;;;7393568;19;20193;-72
2023/08/02 05:57:07;;;;;;;0.00;0.00;;;;;;;;;;7391826;19;20144;-70
2023/08/02 05:59:37;;;;;;;0.00;0.00;;;;;;;;;;7388413;19;20494;-70
2023/08/02 06:02:06;;;;;;;0.00;0.00;;;;;;;;;;7380845;19;20183;-73
2023/08/02 06:04:37;;;;;;;0.00;0.00;;;;;;;;;;7385236;19;20149;-72
2023/08/02 06:07:09;;;;;;;0.00;0.00;;;;;;;;;;7385132;19;20155;-72
2023/08/02 06:09:39;;;;;;;0.00;0.00;;;;;;;;;;7387596;19;20144;-73
2023/08/02 06:12:08;;;;;;;0.00;0.00;;;;;;;;;;7383132;19;20178;-71
2023/08/02 06:14:37;;;;;;;0.00;0.00;;;;;;;;;;7384413;19;20144;-72
2023/08/02 06:17:06;;;;;;;0.00;0.00;;;;;;;;;;7385049;19;20167;-70
2023/08/02 06:19:35;;;;;;;0.00;0.00;;;;;;;;;;7384398;19;20129;-69
2023/08/02 06:22:04;;;;;;;0.00;0.00;;;;;;;;;;7383902;19;20153;-70
2023/08/02 06:24:36;;;;;;;0.00;0.00;;;;;;;;;;7384291;19;20155;-72
2023/08/02 06:27:05;;;;;;;0.00;0.00;;;;;;;;;;7384493;19;20191;-71
2023/08/02 06:29:34;;;;;;;0.00;0.00;;;;;;;;;;7384301;19;20185;-71
2023/08/02 06:32:03;;;;;;;0.00;0.00;;;;;;;;;;7380185;19;20198;-71
2023/08/02 06:34:31;;;;;;;0.00;0.00;;;;;;;;;;7383882;19;20160;-69
2023/08/02 06:37:00;;;;;;;0.00;0.00;;;;;;;;;;7383209;19;20624;-72
2023/08/02 06:39:29;;;;;;;0.00;0.00;;;;;;;;;;7383646;19;20133;-71
2023/08/02 06:42:01;;;;;;;0.00;0.00;;;;;;;;;;7381605;19;20272;-71
2023/08/02 06:44:30;;;;;;;0.00;0.00;;;;;;;;;;7384570;19;20171;-72
2023/08/02 06:46:59;;;;;;;0.00;0.00;;;;;;;;;;7382970;19;20153;-69
2023/08/02 06:49:27;;;;;;;0.00;0.00;;;;;;;;;;7384587;19;20625;-72
2023/08/02 06:51:56;;;;;;;0.00;0.00;;;;;;;;;;7381091;19;20188;-70
2023/08/02 06:54:25;;;;;;;0.00;0.00;;;;;;;;;;7383081;19;20185;-71
2023/08/02 06:56:54;;;;;;;0.00;0.00;;;;;;;;;;7383838;19;20141;-71
2023/08/02 06:59:26;;;;;;;0.00;0.00;;;22.10;99.90;;;;;;7382830;19;20472;-72
2023/08/02 07:01:56;;;;;;;0.00;0.00;;;22.20;99.90;;;;;;7380720;19;20187;-69
2023/08/02 07:04:25;;;;;;;0.00;0.00;;;;;;;;;;7382337;19;20156;-70
2023/08/02 07:06:54;;;;;;;0.00;0.00;;;;;;;;;;7382821;19;20145;-71
2023/08/02 07:09:23;;;;;;;0.00;0.00;;;;;;;;;;7384162;19;20137;-72
2023/08/02 07:11:52;;;;;;;0.00;0.00;;;;;;;;;;7381881;19;20153;-69
2023/08/02 07:14:20;;;;;;;0.00;0.00;;;;;;;;;;7383744;19;20137;-73
2023/08/02 07:16:52;;;;;;;0.00;0.00;;;;;;;;;;7384726;19;20136;-70
2023/08/02 07:19:21;;;;;;;0.00;0.00;;;;;;;;;;7382025;19;20133;-71
2023/08/02 07:21:50;;;;;;;0.00;0.00;;;;;;;;;;7381969;19;20173;-70
2023/08/02 07:24:19;;;;;;;0.00;0.00;;;;;;;;;;7384042;19;20137;-71
2023/08/02 07:26:48;;;;;;;0.00;0.00;;;;;;;;;;7384874;19;20133;-71
2023/08/02 07:29:17;;;;;;;0.00;0.00;;;;;;;;;;7382457;19;20159;-73
2023/08/02 07:31:46;;;;;;;0.00;0.00;;;;;;;;;;7380179;19;20184;-71
2023/08/02 07:34:17;;;;;;;0.00;0.00;;;;;;;;;;7383614;19;20133;-69
2023/08/02 07:36:46;;;;;;;0.00;0.00;;;;;;;;;;7383106;19;20144;-71
2023/08/02 07:39:15;;;;;;;0.00;0.00;;;;;;;;;;7380554;19;20160;-69
2023/08/02 07:41:44;;;;;;;0.00;0.00;;;;;;;;;;7381982;19;20153;-71
2023/08/02 07:44:13;;;;;;;0.00;0.00;;;;;;;;;;7383692;19;20133;-69
2023/08/02 07:46:41;;;;;;;0.00;0.00;;;22.60;99.90;;;;;;7384090;19;20129;-70
2023/08/02 07:49:10;;;;;;;0.00;0.00;;;23.60;99.90;;;;;;7384294;19;20125;-69
2023/08/02 07:51:42;;;;;;;0.00;0.00;;;;;;;;;;7380351;19;20181;-73
2023/08/02 07:54:11;;;;;;;0.00;0.00;;;;;;;;;;7382580;19;20139;-72
2023/08/02 07:56:40;;;;;;;0.00;0.00;;;;;;;;;;7381558;19;20191;-71
2023/08/02 07:59:09;;;;;;;0.00;0.00;;;;;;;;;;7382045;19;20161;-70
2023/08/02 08:01:38;;;;;;;0.00;0.00;;;;;;;;;;7379224;19;20188;-71
2023/08/02 08:04:07;;;;;;;0.00;0.00;;;;;;;;;;7380626;19;20159;-69
2023/08/02 08:06:36;;;;;;;0.00;0.00;;;;;;;;;;7381797;19;20187;-71
2023/08/02 08:09:07;;;;;;;0.00;0.00;;;;;;;;;;7383236;19;20175;-70
2023/08/02 08:11:36;;;;;;;0.00;0.00;;;;;;;;;;7379816;19;20181;-71
2023/08/02 08:14:05;;;;;;;0.00;0.00;;;;;;;;;;7380750;19;20152;-70
2023/08/02 08:16:34;;;;;;;0.00;0.00;;;23.70;99.90;;;;;;7380845;19;20159;-70
2023/08/02 08:19:02;;;;;;;0.00;0.00;;;23.40;99.90;;;;;;7379965;19;20153;-70
2023/08/02 08:21:31;;;;;;;0.00;0.00;;;23.40;99.90;;;;;;7378229;19;20213;-69
2023/08/02 08:24:00;;;;;;;0.00;0.00;;;23.40;99.90;;;;;;7378877;19;20161;-69
2023/08/02 08:26:31;;;;;;;0.00;0.00;;;23.30;99.90;;;;;;7380555;19;20157;-72
2023/08/02 08:29:00;;;;;;;0.00;0.00;;;23.20;99.90;;;;;;7380531;19;20145;-69
2023/08/02 08:31:30;;;;;;;0.00;0.00;;;23.20;99.90;;;;;;7378172;19;20204;-71
2023/08/02 08:33:58;;;;;;;0.00;0.00;;;23.10;99.90;;;;;;7379722;19;20215;-71
2023/08/02 08:36:29;;;;;;;0.00;0.00;;;23.00;99.90;;;;;;7379823;19;20157;-68
2023/08/02 08:38:58;;;;;;;0.00;0.00;;;23.00;99.90;;;;;;7379820;19;20162;-70
2023/08/02 08:41:27;;;;;;;0.00;0.00;;;23.10;99.90;;;;;;7379253;19;20173;-71
2023/08/02 08:43:58;;;;;;;0.00;0.00;;;23.20;99.90;;;;;;7381966;19;20147;-68
2023/08/02 08:46:27;;;;;;;0.00;0.00;;;23.50;99.90;;;;;;7379300;19;20140;-71
2023/08/02 08:48:59;;;;;;;0.00;0.00;;;;;;;;;;7378631;19;20278;-72
2023/08/02 08:51:28;;;;;;;0.00;0.00;;;;;;;;;;7378469;19;20182;-72
2023/08/02 08:53:58;;;;;;;0.00;0.00;;;24.20;99.90;;;;;;7379039;19;20163;-70
2023/08/02 08:56:28;;;;;;;0.00;0.00;;;;;;;;;;7378300;19;20157;-71
2023/08/02 08:59:01;;;;;;;0.00;0.00;;;;;;;;;;7380231;19;20133;-72
2023/08/02 09:01:30;;;;;;;0.00;0.00;;;;;;;;;;7378083;19;20181;-69
2023/08/02 09:03:59;;;;;;;0.00;0.00;;;;;;;;;;7381653;19;20141;-70
2023/08/02 09:06:29;;;;;;;0.00;0.00;;;;;;;;;;7379428;19;20664;-68
2023/08/02 09:08:58;;;;;;;0.00;0.00;;;;;;;;;;7378273;19;20177;-71
2023/08/02 09:11:27;;;;;;;0.00;0.00;;;;;;;;;;7379828;19;20152;-68
2023/08/02 09:14:13;;;;;;;0.00;0.00;;;;;;;;;;7381461;19;20137;-71
2023/08/02 09:16:59;;;;;;;0.00;0.00;;;;;;;;;;7379147;19;20153;-73
2023/08/02 09:19:31;;;;;;;0.00;0.00;;;;;;;;;;7378548;19;20156;-72
2023/08/02 09:22:11;;;;;;;0.00;0.00;;;;;;;;;;7376170;19;20186;-71
2023/08/02 09:24:40;;;;;;;0.00;0.00;;;;;;;;;;7379317;19;20156;-72
2023/08/02 09:27:10;;;;;;;0.00;0.00;;;;;;;;;;7378567;19;20160;-70
2023/08/02 09:29:46;;;;;;;0.00;0.00;;;;;;;;;;7378773;19;20145;-71
2023/08/02 09:32:15;;;;;;;0.00;0.00;;;;;;;;;;7376164;19;20172;-73
2023/08/02 09:34:48;;;;;;;0.00;0.00;;;;;;;;;;7381068;19;20153;-72
2023/08/02 09:37:18;;;;;;;0.00;0.00;;;;;;;;;;7386179;19;20153;-69
2023/08/02 09:39:52;;;;;;;0.00;0.00;;;;;;;;;;7384815;19;20152;-71
2023/08/02 09:42:25;;;;;;;0.00;0.00;;;;;;;;;;7383524;19;20205;-69
2023/08/02 09:44:58;;;;;;;0.00;0.00;;;;;;;;;;7386623;19;20661;-70
2023/08/02 09:47:29;;;;;;;0.00;0.00;;;;;;;;;;7385398;19;20157;-71
2023/08/02 09:50:07;;;;;;;0.00;0.00;;;;;;;;;;7386035;19;20172;-71
2023/08/02 09:52:37;;;;;;;0.00;0.00;;;;;;;;;;7383172;19;20184;-69
2023/08/02 09:55:06;;;;;;;0.00;0.00;;;;;;;;;;7385726;19;20160;-70
2023/08/02 09:57:36;;;;;;;0.00;0.00;;;;;;;;;;7384802;19;20149;-68
2023/08/02 10:00:06;;;;;;;0.00;0.00;;;;;;;;;;7384411;19;20145;-71
2023/08/02 10:02:43;;;;;;;0.00;0.00;;;;;;;;;;7382591;19;20201;-70
2023/08/02 10:05:16;;;;;;;0.00;0.00;;;;;;;;;;7383761;19;20153;-72
2023/08/02 10:07:48;;;;;;;0.00;0.00;;;;;;;;;;7384239;19;20159;-71
2023/08/02 10:10:18;;;;;;;0.00;0.00;;;;;;;;;;7384453;19;20235;-70
2023/08/02 10:12:49;;;;;;;0.00;0.00;;;;;;;;;;7381745;19;20184;-71
2023/08/02 10:15:19;;;;;;;0.00;0.00;;;;;;;;;;7384929;19;20156;-71
2023/08/02 10:17:49;;;;;;;0.00;0.00;;;;;;;;;;7384741;19;20152;-69
2023/08/02 10:20:21;;;;;;;0.00;0.00;;;;;;;;;;7381899;19;20163;-71
2023/08/02 10:22:51;;;;;;;0.00;0.00;;;;;;;;;;7382456;19;20301;-72
2023/08/02 10:25:20;;;;;;;0.00;0.00;;;;;;;;;;7384143;19;20145;-70
2023/08/02 10:27:49;;;;;;;0.00;0.00;;;;;;;;;;7383555;19;20161;-70
2023/08/02 10:30:19;;;;;;;0.00;0.00;;;;;;;;;;7382785;19;20153;-72
2023/08/02 10:33:08;;;;;;;0.00;0.00;;;;;;;;;;7380913;19;20180;-73
2023/08/02 10:35:52;;;;;;;0.00;0.00;;;;;;;;;;7382456;19;20155;-68
2023/08/02 10:38:28;;;;;;;0.00;0.00;;;;;;;;;;7383563;19;20156;-71
2023/08/02 10:41:04;;;;;;;0.00;0.00;;;;;;;;;;7380441;19;20213;-70
2023/08/02 10:43:33;;;;;;;0.00;0.00;;;;;;;;;;7382736;19;20156;-71
2023/08/02 10:46:17;;;;;;;0.00;0.00;;;;;;;;;;7379446;19;20407;-71
2023/08/02 10:48:46;;;;;;;0.00;0.00;;;;;;;;;;7382245;19;20156;-73
2023/08/02 10:51:30;;;;;;;0.00;0.00;;;;;;;;;;7380326;19;20184;-70
2023/08/02 10:54:14;;;;;;;0.00;0.00;;;;;;;;;;7380685;19;20220;-71
2023/08/02 10:57:06;;;;;;;0.00;0.00;;;;;;;;;;7380550;19;20167;-73
2023/08/02 10:59:45;;;;;;;0.00;0.00;;;;;;;;;;7382048;19;20156;-70
2023/08/02 11:02:14;;;;;;;0.00;0.00;;;;;;;;;;7378344;19;20201;-73
2023/08/02 11:04:47;;;;;;;0.00;0.00;;;;;;;;;;7382400;19;20163;-72
2023/08/02 11:07:18;;;;;;;0.00;0.00;;;;;;;;;;7380374;19;20149;-72
2023/08/02 11:09:47;;;;;;;0.00;0.00;;;;;;;;;;7381102;19;20153;-70
2023/08/02 11:12:17;;;;;;;0.00;0.00;;;;;;;;;;7377717;19;20190;-70
2023/08/02 11:14:49;;;;;;;0.00;0.00;;;;;;;;;;7381156;19;20153;-73
2023/08/02 11:17:19;;;;;;;0.00;0.00;;;;;;;;;;7381262;19;20159;-71
2023/08/02 11:19:49;;;;;;;0.00;0.00;;;;;;;;;;7380988;19;20163;-73
2023/08/02 11:22:18;;;;;;;0.00;0.00;;;;;;;;;;7378705;19;20668;-71
2023/08/02 11:24:48;;;;;;;0.00;0.00;;;;;;;;;;7384430;19;20158;-72
2023/08/02 11:27:20;;;;;;;0.00;0.00;;;;;;;;;;7381602;19;20153;-73
2023/08/02 11:30:02;;;;;;;0.00;0.00;;;;;;;;;;7384097;19;20170;-72
2023/08/02 11:32:32;;;;;;;0.00;0.00;;;;;;;;;;7381129;19;20157;-74
2023/08/02 11:35:01;;;;;;;0.00;0.00;;;;;;;;;;7383158;19;20160;-72
2023/08/02 11:37:31;;;;;;;0.00;0.00;;;;;;;;;;7383948;19;20133;-72
2023/08/02 11:40:01;;;;;;;0.00;0.00;;;;;;;;;;7381398;19;20226;-71
2023/08/02 11:42:30;;;;;;;0.00;0.00;;;;;;;;;;7381816;19;20144;-72
2023/08/02 11:44:59;;;;;;;0.00;0.00;;;;;;;;;;7383051;19;20133;-72
2023/08/02 11:47:39;;;;;;;0.00;0.00;;;;;;;;;;7383014;19;20153;-72
2023/08/02 11:50:09;;;;;;;0.00;0.00;;;;;;;;;;7382640;19;20211;-75
2023/08/02 11:52:38;;;;;;;0.00;0.00;;;;;;;;;;7380858;19;20157;-74
2023/08/02 11:55:07;;;;;;;0.00;0.00;;;;;;;;;;7383280;19;20596;-73
2023/08/02 11:57:36;;;;;;;0.00;0.00;;;;;;;;;;7379596;19;20177;-69
2023/08/02 12:00:05;;;;;;;0.00;0.00;;;;;;;;;;7381126;19;20140;-72
2023/08/02 12:02:43;;;;;;;0.00;0.00;;;;;;;;;;7381616;19;20521;-76
2023/08/02 12:05:20;;;;;;;0.00;0.00;;;;;;;;;;7383825;19;20143;-72
2023/08/02 12:07:50;;;;;;;0.00;0.00;;;;;;;;;;7381846;19;20194;-71
2023/08/02 12:10:32;;;;;;;0.00;0.00;;;;;;;;;;7382760;19;20222;-72
2023/08/02 12:13:01;;;;;;;0.00;0.00;;;;;;;;;;7382452;19;20140;-73
2023/08/02 12:15:30;;;;;;;0.00;0.00;;;;;;;;;;7382413;19;20147;-73
2023/08/02 12:18:09;;;;;;;0.00;0.00;;;;;;;;;;7383654;19;20136;-74
2023/08/02 12:20:38;;;;;;;0.00;0.00;;;;;;;;;;7381622;19;20144;-70
2023/08/02 12:23:07;;;;;;;0.00;0.00;;;;;;;;;;7380579;19;20181;-74
2023/08/02 12:25:47;;;;;;;0.00;0.00;;;;;;;;;;7380723;19;20159;-74
2023/08/02 12:28:16;;;;;;;0.00;0.00;;;;;;;;;;7382369;19;20136;-70
2023/08/02 12:31:00;;;;;;;0.00;0.00;;;;;;;;;;7382422;19;20136;-69
2023/08/02 12:33:32;;;;;;;0.00;0.00;;;;;;;;;;7381883;19;20140;-71
2023/08/02 12:36:01;;;;;;;0.00;0.00;;;;;;;;;;7381144;19;20519;-69
2023/08/02 12:38:31;;;;;;;0.00;0.00;;;;;;;;;;7382721;19;20143;-69
2023/08/02 12:41:00;;;;;;;0.00;0.00;;;;;;;;;;7378299;19;20263;-73
2023/08/02 12:43:29;;;;;;;0.00;0.00;;;;;;;;;;7380216;19;20160;-68
2023/08/02 12:45:58;;;;;;;0.00;0.00;;;;;;;;;;7381081;19;20573;-71
2023/08/02 12:48:27;;;;;;;0.00;0.00;;;;;;;;;;7382768;19;20133;-68
2023/08/02 12:50:59;;;;;;;0.00;0.00;;;;;;;;;;7378439;19;20188;-72
2023/08/02 12:53:27;;;;;;;0.00;0.00;;;;;;;;;;7379371;19;20177;-71
2023/08/02 12:55:56;;;;;;;0.00;0.00;;;;;;;;;;7381241;19;20157;-71
2023/08/02 12:58:25;;;;;;;0.00;0.00;;;;;;;;;;7379779;19;20160;-70
2023/08/02 13:00:55;;;;;;;0.00;0.00;;;;;;;;;;7379619;19;20149;-71
2023/08/02 13:03:24;;;;;;;0.00;0.00;;;;;;;;;;7381730;19;20145;-67
2023/08/02 13:05:53;;;;;;;0.00;0.00;;;;;;;;;;7380946;19;20154;-72
2023/08/02 13:08:24;;;;;;;0.00;0.00;;;;;;;;;;7381381;19;20177;-72
2023/08/02 13:10:54;;;;;;;0.00;0.00;;;;;;;;;;7383310;19;20180;-73
2023/08/02 13:13:23;;;;;;;0.00;0.00;;;;;;;;;;7388496;19;20141;-71
2023/08/02 13:15:52;;;;;;;0.00;0.00;;;;;;;;;;7387240;19;20181;-72
2023/08/02 13:18:21;;;;;;;0.00;0.00;;;;;;;;;;7386277;19;20156;-73
2023/08/02 13:20:50;;;;;;;0.00;0.00;;;;;;;;;;7385766;19;20182;-72
2023/08/02 13:23:19;;;;;;;0.00;0.00;;;;;;;;;;7385564;19;20172;-71
2023/08/02 13:25:50;;;;;;;0.00;0.00;;;;;;;;;;7389212;19;20172;-71
2023/08/02 13:28:19;;;;;;;0.00;0.00;;;;;;;;;;7386645;19;20180;-69
2023/08/02 13:30:48;;;;;;;0.00;0.00;;;;;;;;;;7385128;19;20188;-69
2023/08/02 13:33:17;;;;;;;0.00;0.00;;;;;;;;;;7384958;19;20152;-70
2023/08/02 13:35:46;;;;;;;0.00;0.00;;;;;;;;;;7387051;19;20157;-69
2023/08/02 13:38:15;;;;;;;0.00;0.00;;;;;;;;;;7386422;19;20173;-72
2023/08/02 13:40:43;;;;;;;0.00;0.00;;;;;;;;;;7387386;19;20495;-69
2023/08/02 13:43:15;;;;;;;0.00;0.00;;;;;;;;;;7385338;19;20153;-73
2023/08/02 13:45:44;;;;;;;0.00;0.00;;;;;;;;;;7388593;19;20165;-70
2023/08/02 13:48:13;;;;;;;0.00;0.00;;;;;;;;;;7385698;19;20148;-70
2023/08/02 13:50:42;;;;;;;0.00;0.00;;;;;;;;;;7385197;19;20152;-71
2023/08/02 13:53:11;;;;;;;0.00;0.00;;;;;;;;;;7382646;19;20579;-68
2023/08/02 13:55:40;;;;;;;0.00;0.00;;;;;;;;;;7386628;19;20437;-71
2023/08/02 13:58:08;;;;;;;0.00;0.00;;;;;;;;;;7384235;19;20160;-69
2023/08/02 14:00:40;;;;;;;0.00;0.00;;;;;;;;;;7384209;19;20177;-72
2023/08/02 14:03:09;;;;;;;0.00;0.00;;;;;;;;;;7386954;19;20148;-69
2023/08/02 14:05:38;;;;;;;0.00;0.00;;;;;;;;;;7383111;19;20160;-72
2023/08/02 14:08:07;;;;;;;0.00;0.00;;;;;;;;;;7385839;19;20162;-71
2023/08/02 14:10:36;;;;;;;0.00;0.00;;;;;;;;;;7384039;19;20156;-72
2023/08/02 14:13:05;;;;;;;0.00;0.00;;;;;;;;;;7383147;19;20141;-69
2023/08/02 14:15:34;;;;;;;0.00;0.00;;;;;;;;;;7381623;19;20161;-70
2023/08/02 14:18:05;;;;;;;0.00;0.00;;;;;;;;;;7384229;19;20141;-72
2023/08/02 14:20:34;;;;;;;0.00;0.00;;;;;;;;;;7381282;19;20192;-71
2023/08/02 14:23:03;;;;;;;0.00;0.00;;;;;;;;;;7380339;19;20154;-72
2023/08/02 14:25:32;;;;;;;0.00;0.00;;;;;;;;;;7382599;19;20175;-72
2023/08/02 14:28:01;;;;;;;0.00;0.00;;;;;;;;;;7386165;19;20150;-71
2023/08/02 14:30:30;;;;;;;0.00;0.00;;;;;;;;;;7385676;19;20144;-71
2023/08/02 14:32:59;;;;;;;0.00;0.00;;;;;;;;;;7385296;19;20136;-72
2023/08/02 14:35:30;;;;;;;0.00;0.00;;;;;;;;;;7383225;19;20153;-74
2023/08/02 14:38:00;;;;;;;0.00;0.00;;;;;;;;;;7386678;19;20145;-71
2023/08/02 14:40:28;;;;;;;0.00;0.00;;;;;;;;;;7383425;19;20161;-71
2023/08/02 14:42:57;;;;;;;0.00;0.00;;;;;;;;;;7381528;19;20157;-70
2023/08/02 14:45:26;;;;;;;0.00;0.00;;;;;;;;;;7385091;19;20132;-71
2023/08/02 14:47:55;;;;;;;0.00;0.00;;;;;;;;;;7385780;19;20137;-72
2023/08/02 14:50:24;;;;;;;0.00;0.00;;;;;;;;;;7383931;19;20137;-72
2023/08/02 14:52:56;;;;;;;0.00;0.00;;;;;;;;;;7375035;19;20137;-70
2023/08/02 14:55:25;;;;;;;0.00;0.00;;;;;;;;;;7381939;19;20148;-71
2023/08/02 14:57:54;;;;;;;0.00;0.00;;;;;;;;;;7380085;19;20165;-71